sensor_id;sensor_type;location;lat;lon;timestamp;P1;durP1;ratioP1;P2;durP2;ratioP2
317;SDS011;146;53.448;10.228;2023-05-07T00:01:54;11.30;;;10.20;;
317;SDS011;146;53.448;10.228;2023-05-07T00:04:24;9.33;;;8.33;;
317;SDS011;146;53.448;10.228;2023-05-07T00:06:53;11.10;;;10.00;;
317;SDS011;146;53.448;10.228;2023-05-07T00:09:23;10.60;;;9.50;;
317;SDS011;146;53.448;10.228;2023-05-07T00:11:50;9.53;;;8.57;;
317;SDS011;146;53.448;10.228;2023-05-07T00:14:27;10.40;;;9.40;;
317;SDS011;146;53.448;10.228;2023-05-07T00:16:54;10.17;;;9.17;;
317;SDS011;146;53.448;10.228;2023-05-07T00:19:21;12.43;;;11.13;;
317;SDS011;146;53.448;10.228;2023-05-07T00:21:50;9.20;;;8.10;;
317;SDS011;146;53.448;10.228;2023-05-07T00:24:20;9.50;;;8.60;;
317;SDS011;146;53.448;10.228;2023-05-07T00:26:47;10.10;;;9.10;;
317;SDS011;146;53.448;10.228;2023-05-07T00:29:20;9.90;;;8.90;;
317;SDS011;146;53.448;10.228;2023-05-07T00:31:50;8.50;;;7.70;;
317;SDS011;146;53.448;10.228;2023-05-07T00:34:26;9.97;;;8.93;;
317;SDS011;146;53.448;10.228;2023-05-07T00:36:52;8.20;;;7.40;;
317;SDS011;146;53.448;10.228;2023-05-07T00:39:22;9.67;;;7.93;;
317;SDS011;146;53.448;10.228;2023-05-07T00:41:55;10.03;;;9.07;;
317;SDS011;146;53.448;10.228;2023-05-07T00:44:22;9.40;;;8.50;;
317;SDS011;146;53.448;10.228;2023-05-07T00:46:50;9.77;;;8.80;;
317;SDS011;146;53.448;10.228;2023-05-07T00:49:17;10.07;;;9.07;;
317;SDS011;146;53.448;10.228;2023-05-07T00:51:45;9.17;;;8.27;;
317;SDS011;146;53.448;10.228;2023-05-07T00:54:15;9.63;;;8.03;;
317;SDS011;146;53.448;10.228;2023-05-07T00:56:42;8.70;;;7.73;;
317;SDS011;146;53.448;10.228;2023-05-07T00:59:10;8.60;;;7.90;;
317;SDS011;146;53.448;10.228;2023-05-07T01:01:37;9.70;;;8.60;;
317;SDS011;146;53.448;10.228;2023-05-07T01:04:07;8.43;;;7.40;;
317;SDS011;146;53.448;10.228;2023-05-07T01:06:34;8.40;;;7.40;;
317;SDS011;146;53.448;10.228;2023-05-07T01:09:01;9.20;;;8.30;;
317;SDS011;146;53.448;10.228;2023-05-07T01:11:29;9.23;;;8.43;;
317;SDS011;146;53.448;10.228;2023-05-07T01:13:56;8.43;;;7.30;;
317;SDS011;146;53.448;10.228;2023-05-07T01:16:25;10.80;;;6.97;;
317;SDS011;146;53.448;10.228;2023-05-07T01:18:52;7.77;;;6.97;;
317;SDS011;146;53.448;10.228;2023-05-07T01:21:20;8.30;;;7.50;;
317;SDS011;146;53.448;10.228;2023-05-07T01:23:59;6.90;;;6.30;;
317;SDS011;146;53.448;10.228;2023-05-07T01:26:26;8.77;;;8.00;;
317;SDS011;146;53.448;10.228;2023-05-07T01:28:53;8.27;;;7.57;;
317;SDS011;146;53.448;10.228;2023-05-07T01:31:23;6.80;;;6.30;;
317;SDS011;146;53.448;10.228;2023-05-07T01:33:53;6.87;;;6.17;;
317;SDS011;146;53.448;10.228;2023-05-07T01:36:23;8.43;;;7.63;;
317;SDS011;146;53.448;10.228;2023-05-07T01:38:52;8.03;;;7.23;;
317;SDS011;146;53.448;10.228;2023-05-07T01:41:23;7.40;;;6.70;;
317;SDS011;146;53.448;10.228;2023-05-07T01:43:59;7.87;;;7.17;;
317;SDS011;146;53.448;10.228;2023-05-07T01:46:27;8.53;;;7.77;;
317;SDS011;146;53.448;10.228;2023-05-07T01:48:54;8.57;;;7.70;;
317;SDS011;146;53.448;10.228;2023-05-07T01:51:21;8.47;;;7.67;;
317;SDS011;146;53.448;10.228;2023-05-07T01:53:52;8.63;;;7.83;;
317;SDS011;146;53.448;10.228;2023-05-07T01:56:20;8.53;;;7.73;;
317;SDS011;146;53.448;10.228;2023-05-07T01:58:47;9.03;;;8.23;;
317;SDS011;146;53.448;10.228;2023-05-07T02:01:16;8.80;;;7.90;;
317;SDS011;146;53.448;10.228;2023-05-07T02:03:43;8.70;;;7.70;;
317;SDS011;146;53.448;10.228;2023-05-07T02:06:09;9.33;;;8.37;;
317;SDS011;146;53.448;10.228;2023-05-07T02:08:41;8.53;;;7.83;;
317;SDS011;146;53.448;10.228;2023-05-07T02:11:11;9.43;;;8.53;;
317;SDS011;146;53.448;10.228;2023-05-07T02:13:42;8.83;;;8.03;;
317;SDS011;146;53.448;10.228;2023-05-07T02:16:12;9.30;;;8.30;;
317;SDS011;146;53.448;10.228;2023-05-07T02:18:39;10.80;;;8.20;;
317;SDS011;146;53.448;10.228;2023-05-07T02:21:12;8.87;;;7.97;;
317;SDS011;146;53.448;10.228;2023-05-07T02:23:42;8.77;;;7.87;;
317;SDS011;146;53.448;10.228;2023-05-07T02:26:08;8.83;;;7.93;;
317;SDS011;146;53.448;10.228;2023-05-07T02:28:36;12.80;;;8.73;;
317;SDS011;146;53.448;10.228;2023-05-07T02:31:04;9.30;;;7.80;;
317;SDS011;146;53.448;10.228;2023-05-07T02:33:31;8.83;;;7.67;;
317;SDS011;146;53.448;10.228;2023-05-07T02:36:04;8.93;;;8.03;;
317;SDS011;146;53.448;10.228;2023-05-07T02:38:32;8.90;;;8.00;;
317;SDS011;146;53.448;10.228;2023-05-07T02:41:00;10.47;;;9.40;;
317;SDS011;146;53.448;10.228;2023-05-07T02:43:26;10.27;;;9.20;;
317;SDS011;146;53.448;10.228;2023-05-07T02:46:00;11.23;;;9.93;;
317;SDS011;146;53.448;10.228;2023-05-07T02:48:29;9.30;;;8.43;;
317;SDS011;146;53.448;10.228;2023-05-07T02:50:56;10.33;;;8.57;;
317;SDS011;146;53.448;10.228;2023-05-07T02:53:23;9.97;;;9.07;;
317;SDS011;146;53.448;10.228;2023-05-07T02:55:51;10.00;;;9.00;;
317;SDS011;146;53.448;10.228;2023-05-07T02:58:18;11.53;;;10.30;;
317;SDS011;146;53.448;10.228;2023-05-07T03:00:45;10.40;;;9.47;;
317;SDS011;146;53.448;10.228;2023-05-07T03:03:12;10.83;;;9.10;;
317;SDS011;146;53.448;10.228;2023-05-07T03:05:40;10.30;;;9.30;;
317;SDS011;146;53.448;10.228;2023-05-07T03:08:07;10.63;;;9.50;;
317;SDS011;146;53.448;10.228;2023-05-07T03:10:37;10.90;;;9.80;;
317;SDS011;146;53.448;10.228;2023-05-07T03:13:04;9.63;;;8.63;;
317;SDS011;146;53.448;10.228;2023-05-07T03:15:31;9.67;;;8.67;;
317;SDS011;146;53.448;10.228;2023-05-07T03:18:00;10.70;;;8.87;;
317;SDS011;146;53.448;10.228;2023-05-07T03:20:30;10.03;;;9.10;;
317;SDS011;146;53.448;10.228;2023-05-07T03:22:58;9.87;;;8.87;;
317;SDS011;146;53.448;10.228;2023-05-07T03:25:25;10.80;;;9.00;;
317;SDS011;146;53.448;10.228;2023-05-07T03:27:52;9.47;;;8.50;;
317;SDS011;146;53.448;10.228;2023-05-07T03:30:18;9.93;;;8.93;;
317;SDS011;146;53.448;10.228;2023-05-07T03:32:45;9.00;;;8.10;;
317;SDS011;146;53.448;10.228;2023-05-07T03:35:12;10.23;;;9.23;;
317;SDS011;146;53.448;10.228;2023-05-07T03:37:39;9.93;;;9.03;;
317;SDS011;146;53.448;10.228;2023-05-07T03:40:08;10.00;;;9.00;;
317;SDS011;146;53.448;10.228;2023-05-07T03:42:37;10.10;;;9.10;;
317;SDS011;146;53.448;10.228;2023-05-07T03:45:04;9.37;;;8.47;;
317;SDS011;146;53.448;10.228;2023-05-07T03:47:31;8.73;;;7.87;;
317;SDS011;146;53.448;10.228;2023-05-07T03:49:58;11.43;;;9.43;;
317;SDS011;146;53.448;10.228;2023-05-07T03:52:25;10.20;;;9.30;;
317;SDS011;146;53.448;10.228;2023-05-07T03:54:52;10.00;;;9.10;;
317;SDS011;146;53.448;10.228;2023-05-07T03:57:23;9.80;;;8.90;;
317;SDS011;146;53.448;10.228;2023-05-07T03:59:52;8.80;;;8.00;;
317;SDS011;146;53.448;10.228;2023-05-07T04:02:19;8.87;;;7.97;;
317;SDS011;146;53.448;10.228;2023-05-07T04:04:48;9.73;;;8.73;;
317;SDS011;146;53.448;10.228;2023-05-07T04:07:17;10.60;;;9.50;;
317;SDS011;146;53.448;10.228;2023-05-07T04:09:44;10.57;;;9.47;;
317;SDS011;146;53.448;10.228;2023-05-07T04:12:14;9.30;;;8.40;;
317;SDS011;146;53.448;10.228;2023-05-07T04:14:45;9.10;;;8.20;;
317;SDS011;146;53.448;10.228;2023-05-07T04:17:15;9.40;;;8.50;;
317;SDS011;146;53.448;10.228;2023-05-07T04:19:42;10.20;;;9.20;;
317;SDS011;146;53.448;10.228;2023-05-07T04:22:10;9.93;;;8.93;;
317;SDS011;146;53.448;10.228;2023-05-07T04:24:40;10.30;;;9.30;;
317;SDS011;146;53.448;10.228;2023-05-07T04:27:07;9.30;;;8.40;;
317;SDS011;146;53.448;10.228;2023-05-07T04:29:34;9.93;;;8.93;;
317;SDS011;146;53.448;10.228;2023-05-07T04:32:02;9.53;;;8.63;;
317;SDS011;146;53.448;10.228;2023-05-07T04:34:29;9.40;;;8.50;;
317;SDS011;146;53.448;10.228;2023-05-07T04:36:57;9.13;;;8.30;;
317;SDS011;146;53.448;10.228;2023-05-07T04:39:24;9.73;;;8.60;;
317;SDS011;146;53.448;10.228;2023-05-07T04:41:51;9.60;;;8.70;;
317;SDS011;146;53.448;10.228;2023-05-07T04:44:18;7.47;;;6.77;;
317;SDS011;146;53.448;10.228;2023-05-07T04:46:45;9.50;;;8.53;;
317;SDS011;146;53.448;10.228;2023-05-07T04:49:13;8.40;;;7.60;;
317;SDS011;146;53.448;10.228;2023-05-07T04:51:43;9.60;;;8.50;;
317;SDS011;146;53.448;10.228;2023-05-07T04:54:10;8.60;;;7.80;;
317;SDS011;146;53.448;10.228;2023-05-07T04:56:43;8.30;;;7.50;;
317;SDS011;146;53.448;10.228;2023-05-07T04:59:12;9.30;;;8.33;;
317;SDS011;146;53.448;10.228;2023-05-07T05:01:45;8.73;;;7.83;;
317;SDS011;146;53.448;10.228;2023-05-07T05:04:13;8.20;;;7.40;;
317;SDS011;146;53.448;10.228;2023-05-07T05:06:40;8.40;;;7.70;;
317;SDS011;146;53.448;10.228;2023-05-07T05:09:10;9.77;;;8.70;;
317;SDS011;146;53.448;10.228;2023-05-07T05:11:37;9.93;;;8.93;;
317;SDS011;146;53.448;10.228;2023-05-07T05:14:07;8.50;;;7.60;;
317;SDS011;146;53.448;10.228;2023-05-07T05:16:35;8.83;;;7.17;;
317;SDS011;146;53.448;10.228;2023-05-07T05:19:02;8.47;;;7.57;;
317;SDS011;146;53.448;10.228;2023-05-07T05:21:30;9.10;;;8.23;;
317;SDS011;146;53.448;10.228;2023-05-07T05:23:58;10.20;;;9.10;;
317;SDS011;146;53.448;10.228;2023-05-07T05:26:24;9.33;;;8.40;;
317;SDS011;146;53.448;10.228;2023-05-07T05:28:54;9.77;;;8.87;;
317;SDS011;146;53.448;10.228;2023-05-07T05:31:21;9.70;;;8.70;;
317;SDS011;146;53.448;10.228;2023-05-07T05:33:48;10.10;;;9.00;;
317;SDS011;146;53.448;10.228;2023-05-07T05:36:20;10.07;;;9.07;;
317;SDS011;146;53.448;10.228;2023-05-07T05:38:48;9.23;;;8.30;;
317;SDS011;146;53.448;10.228;2023-05-07T05:41:15;9.40;;;8.40;;
317;SDS011;146;53.448;10.228;2023-05-07T05:43:45;8.27;;;7.57;;
317;SDS011;146;53.448;10.228;2023-05-07T05:46:12;9.10;;;8.20;;
317;SDS011;146;53.448;10.228;2023-05-07T05:48:39;9.03;;;7.87;;
317;SDS011;146;53.448;10.228;2023-05-07T05:51:05;8.50;;;7.60;;
317;SDS011;146;53.448;10.228;2023-05-07T05:53:32;9.80;;;8.63;;
317;SDS011;146;53.448;10.228;2023-05-07T05:56:00;9.10;;;8.17;;
317;SDS011;146;53.448;10.228;2023-05-07T05:58:27;8.00;;;7.30;;
317;SDS011;146;53.448;10.228;2023-05-07T06:00:54;9.20;;;8.30;;
317;SDS011;146;53.448;10.228;2023-05-07T06:03:24;9.57;;;8.50;;
317;SDS011;146;53.448;10.228;2023-05-07T06:05:51;7.90;;;7.13;;
317;SDS011;146;53.448;10.228;2023-05-07T06:08:18;9.67;;;7.67;;
317;SDS011;146;53.448;10.228;2023-05-07T06:10:47;7.90;;;7.20;;
317;SDS011;146;53.448;10.228;2023-05-07T06:13:18;10.00;;;9.10;;
317;SDS011;146;53.448;10.228;2023-05-07T06:15:45;8.87;;;8.17;;
317;SDS011;146;53.448;10.228;2023-05-07T06:18:12;8.63;;;7.83;;
317;SDS011;146;53.448;10.228;2023-05-07T06:20:38;8.50;;;7.70;;
317;SDS011;146;53.448;10.228;2023-05-07T06:23:05;10.17;;;8.13;;
317;SDS011;146;53.448;10.228;2023-05-07T06:25:32;12.90;;;9.60;;
317;SDS011;146;53.448;10.228;2023-05-07T06:27:59;8.80;;;8.00;;
317;SDS011;146;53.448;10.228;2023-05-07T06:30:27;9.63;;;8.60;;
317;SDS011;146;53.448;10.228;2023-05-07T06:32:54;8.47;;;7.70;;
317;SDS011;146;53.448;10.228;2023-05-07T06:35:20;8.60;;;7.70;;
317;SDS011;146;53.448;10.228;2023-05-07T06:37:47;9.23;;;8.23;;
317;SDS011;146;53.448;10.228;2023-05-07T06:40:14;9.90;;;8.40;;
317;SDS011;146;53.448;10.228;2023-05-07T06:42:41;8.03;;;7.23;;
317;SDS011;146;53.448;10.228;2023-05-07T06:45:08;9.50;;;7.10;;
317;SDS011;146;53.448;10.228;2023-05-07T06:47:37;8.03;;;7.20;;
317;SDS011;146;53.448;10.228;2023-05-07T06:50:04;8.23;;;6.40;;
317;SDS011;146;53.448;10.228;2023-05-07T06:52:32;7.43;;;6.70;;
317;SDS011;146;53.448;10.228;2023-05-07T06:54:59;7.57;;;6.87;;
317;SDS011;146;53.448;10.228;2023-05-07T06:57:26;7.20;;;6.47;;
317;SDS011;146;53.448;10.228;2023-05-07T06:59:52;7.80;;;7.10;;
317;SDS011;146;53.448;10.228;2023-05-07T07:02:25;9.37;;;8.57;;
317;SDS011;146;53.448;10.228;2023-05-07T07:04:53;7.23;;;6.53;;
317;SDS011;146;53.448;10.228;2023-05-07T07:07:20;7.67;;;6.93;;
317;SDS011;146;53.448;10.228;2023-05-07T07:09:47;7.67;;;6.97;;
317;SDS011;146;53.448;10.228;2023-05-07T07:12:16;8.70;;;6.93;;
317;SDS011;146;53.448;10.228;2023-05-07T07:14:51;8.80;;;7.20;;
317;SDS011;146;53.448;10.228;2023-05-07T07:17:17;8.33;;;7.40;;
317;SDS011;146;53.448;10.228;2023-05-07T07:20:01;7.73;;;7.03;;
317;SDS011;146;53.448;10.228;2023-05-07T07:22:30;8.57;;;7.77;;
317;SDS011;146;53.448;10.228;2023-05-07T07:24:57;8.00;;;7.23;;
317;SDS011;146;53.448;10.228;2023-05-07T07:27:24;6.80;;;6.17;;
317;SDS011;146;53.448;10.228;2023-05-07T07:29:51;6.60;;;6.10;;
317;SDS011;146;53.448;10.228;2023-05-07T07:32:18;7.53;;;6.73;;
317;SDS011;146;53.448;10.228;2023-05-07T07:34:57;7.33;;;6.63;;
317;SDS011;146;53.448;10.228;2023-05-07T07:37:25;8.20;;;7.50;;
317;SDS011;146;53.448;10.228;2023-05-07T07:39:52;8.43;;;7.63;;
317;SDS011;146;53.448;10.228;2023-05-07T07:42:18;9.10;;;8.20;;
317;SDS011;146;53.448;10.228;2023-05-07T07:44:45;7.07;;;6.47;;
317;SDS011;146;53.448;10.228;2023-05-07T07:47:15;7.40;;;6.80;;
317;SDS011;146;53.448;10.228;2023-05-07T07:49:42;7.40;;;6.47;;
317;SDS011;146;53.448;10.228;2023-05-07T07:52:08;7.50;;;6.70;;
317;SDS011;146;53.448;10.228;2023-05-07T07:54:37;7.17;;;6.57;;
317;SDS011;146;53.448;10.228;2023-05-07T07:57:07;7.50;;;6.90;;
317;SDS011;146;53.448;10.228;2023-05-07T07:59:33;7.13;;;6.53;;
317;SDS011;146;53.448;10.228;2023-05-07T08:02:00;6.93;;;6.33;;
317;SDS011;146;53.448;10.228;2023-05-07T08:04:27;8.53;;;7.67;;
317;SDS011;146;53.448;10.228;2023-05-07T08:06:55;8.00;;;7.20;;
317;SDS011;146;53.448;10.228;2023-05-07T08:09:23;7.07;;;6.47;;
317;SDS011;146;53.448;10.228;2023-05-07T08:11:55;7.50;;;6.90;;
317;SDS011;146;53.448;10.228;2023-05-07T08:14:21;7.70;;;6.80;;
317;SDS011;146;53.448;10.228;2023-05-07T08:16:48;7.07;;;6.37;;
317;SDS011;146;53.448;10.228;2023-05-07T08:19:15;8.30;;;7.47;;
317;SDS011;146;53.448;10.228;2023-05-07T08:21:48;8.23;;;7.43;;
317;SDS011;146;53.448;10.228;2023-05-07T08:24:15;7.07;;;6.47;;
317;SDS011;146;53.448;10.228;2023-05-07T08:26:42;9.00;;;8.20;;
317;SDS011;146;53.448;10.228;2023-05-07T08:29:14;8.40;;;7.70;;
317;SDS011;146;53.448;10.228;2023-05-07T08:31:43;8.07;;;7.30;;
317;SDS011;146;53.448;10.228;2023-05-07T08:34:10;7.90;;;7.20;;
317;SDS011;146;53.448;10.228;2023-05-07T08:36:51;8.10;;;7.43;;
317;SDS011;146;53.448;10.228;2023-05-07T08:39:18;7.83;;;7.20;;
317;SDS011;146;53.448;10.228;2023-05-07T08:41:44;8.70;;;7.90;;
317;SDS011;146;53.448;10.228;2023-05-07T08:44:12;7.37;;;6.77;;
317;SDS011;146;53.448;10.228;2023-05-07T08:46:43;8.03;;;7.20;;
317;SDS011;146;53.448;10.228;2023-05-07T08:49:13;6.47;;;5.90;;
317;SDS011;146;53.448;10.228;2023-05-07T08:51:43;7.20;;;6.70;;
317;SDS011;146;53.448;10.228;2023-05-07T08:54:10;8.97;;;8.17;;
317;SDS011;146;53.448;10.228;2023-05-07T08:56:38;7.37;;;6.80;;
317;SDS011;146;53.448;10.228;2023-05-07T08:59:08;6.73;;;6.13;;
317;SDS011;146;53.448;10.228;2023-05-07T09:01:39;7.27;;;6.67;;
317;SDS011;146;53.448;10.228;2023-05-07T09:04:06;7.33;;;6.67;;
317;SDS011;146;53.448;10.228;2023-05-07T09:06:34;6.23;;;5.73;;
317;SDS011;146;53.448;10.228;2023-05-07T09:09:03;6.47;;;5.90;;
317;SDS011;146;53.448;10.228;2023-05-07T09:11:30;6.17;;;5.67;;
317;SDS011;146;53.448;10.228;2023-05-07T09:13:59;6.87;;;6.27;;
317;SDS011;146;53.448;10.228;2023-05-07T09:16:30;6.60;;;6.10;;
317;SDS011;146;53.448;10.228;2023-05-07T09:18:59;7.40;;;6.80;;
317;SDS011;146;53.448;10.228;2023-05-07T09:21:26;6.70;;;6.10;;
317;SDS011;146;53.448;10.228;2023-05-07T09:23:55;7.63;;;6.93;;
317;SDS011;146;53.448;10.228;2023-05-07T09:26:22;7.03;;;6.43;;
317;SDS011;146;53.448;10.228;2023-05-07T09:28:50;8.07;;;7.40;;
317;SDS011;146;53.448;10.228;2023-05-07T09:31:17;8.00;;;6.33;;
317;SDS011;146;53.448;10.228;2023-05-07T09:33:44;7.50;;;6.90;;
317;SDS011;146;53.448;10.228;2023-05-07T09:36:12;7.60;;;6.77;;
317;SDS011;146;53.448;10.228;2023-05-07T09:38:39;7.20;;;6.60;;
317;SDS011;146;53.448;10.228;2023-05-07T09:41:07;7.10;;;6.50;;
317;SDS011;146;53.448;10.228;2023-05-07T09:43:35;6.83;;;6.23;;
317;SDS011;146;53.448;10.228;2023-05-07T09:46:05;8.20;;;7.50;;
317;SDS011;146;53.448;10.228;2023-05-07T09:48:36;6.80;;;6.30;;
317;SDS011;146;53.448;10.228;2023-05-07T09:51:06;8.07;;;7.37;;
317;SDS011;146;53.448;10.228;2023-05-07T09:53:43;7.27;;;6.47;;
317;SDS011;146;53.448;10.228;2023-05-07T09:56:12;7.17;;;6.60;;
317;SDS011;146;53.448;10.228;2023-05-07T09:58:41;7.43;;;6.73;;
317;SDS011;146;53.448;10.228;2023-05-07T10:01:10;6.53;;;5.93;;
317;SDS011;146;53.448;10.228;2023-05-07T10:03:37;6.93;;;6.30;;
317;SDS011;146;53.448;10.228;2023-05-07T10:06:09;7.27;;;6.63;;
317;SDS011;146;53.448;10.228;2023-05-07T10:08:36;6.50;;;6.00;;
317;SDS011;146;53.448;10.228;2023-05-07T10:11:05;6.80;;;6.20;;
317;SDS011;146;53.448;10.228;2023-05-07T10:13:32;6.50;;;6.03;;
317;SDS011;146;53.448;10.228;2023-05-07T10:16:01;6.13;;;5.73;;
317;SDS011;146;53.448;10.228;2023-05-07T10:18:29;6.53;;;6.03;;
317;SDS011;146;53.448;10.228;2023-05-07T10:20:59;6.87;;;6.27;;
317;SDS011;146;53.448;10.228;2023-05-07T10:23:30;5.83;;;5.30;;
317;SDS011;146;53.448;10.228;2023-05-07T10:25:58;6.40;;;5.90;;
317;SDS011;146;53.448;10.228;2023-05-07T10:28:29;7.03;;;6.47;;
317;SDS011;146;53.448;10.228;2023-05-07T10:31:03;7.10;;;6.50;;
317;SDS011;146;53.448;10.228;2023-05-07T10:33:44;6.53;;;6.03;;
317;SDS011;146;53.448;10.228;2023-05-07T10:36:16;6.10;;;5.57;;
317;SDS011;146;53.448;10.228;2023-05-07T10:38:44;6.60;;;6.10;;
317;SDS011;146;53.448;10.228;2023-05-07T10:41:11;6.80;;;6.30;;
317;SDS011;146;53.448;10.228;2023-05-07T10:43:45;7.10;;;6.40;;
317;SDS011;146;53.448;10.228;2023-05-07T10:46:14;6.07;;;5.57;;
317;SDS011;146;53.448;10.228;2023-05-07T10:51:43;6.20;;;5.70;;
317;SDS011;146;53.448;10.228;2023-05-07T10:54:18;7.07;;;6.37;;
317;SDS011;146;53.448;10.228;2023-05-07T10:56:48;6.43;;;5.93;;
317;SDS011;146;53.448;10.228;2023-05-07T11:02:16;6.40;;;5.90;;
317;SDS011;146;53.448;10.228;2023-05-07T11:04:43;6.30;;;5.83;;
317;SDS011;146;53.448;10.228;2023-05-07T11:07:21;6.23;;;5.27;;
317;SDS011;146;53.448;10.228;2023-05-07T11:10:03;7.10;;;6.57;;
317;SDS011;146;53.448;10.228;2023-05-07T11:18:10;6.10;;;5.60;;
317;SDS011;146;53.448;10.228;2023-05-07T11:20:51;5.87;;;5.37;;
317;SDS011;146;53.448;10.228;2023-05-07T11:26:22;5.80;;;5.40;;
317;SDS011;146;53.448;10.228;2023-05-07T11:28:50;5.20;;;4.80;;
317;SDS011;146;53.448;10.228;2023-05-07T11:31:21;5.43;;;5.03;;
317;SDS011;146;53.448;10.228;2023-05-07T11:33:53;5.93;;;5.43;;
317;SDS011;146;53.448;10.228;2023-05-07T11:36:22;6.20;;;5.80;;
317;SDS011;146;53.448;10.228;2023-05-07T11:38:53;4.93;;;4.53;;
317;SDS011;146;53.448;10.228;2023-05-07T11:41:21;5.37;;;4.73;;
317;SDS011;146;53.448;10.228;2023-05-07T11:43:54;5.57;;;5.17;;
317;SDS011;146;53.448;10.228;2023-05-07T11:46:26;4.93;;;4.63;;
317;SDS011;146;53.448;10.228;2023-05-07T11:48:54;5.40;;;4.90;;
317;SDS011;146;53.448;10.228;2023-05-07T11:51:21;5.70;;;5.20;;
317;SDS011;146;53.448;10.228;2023-05-07T11:53:51;4.73;;;4.43;;
317;SDS011;146;53.448;10.228;2023-05-07T11:56:18;4.83;;;4.53;;
317;SDS011;146;53.448;10.228;2023-05-07T11:58:45;4.27;;;3.97;;
317;SDS011;146;53.448;10.228;2023-05-07T12:01:14;5.47;;;4.87;;
317;SDS011;146;53.448;10.228;2023-05-07T12:03:45;5.30;;;4.90;;
317;SDS011;146;53.448;10.228;2023-05-07T12:06:18;4.50;;;4.20;;
317;SDS011;146;53.448;10.228;2023-05-07T12:08:46;4.60;;;4.30;;
317;SDS011;146;53.448;10.228;2023-05-07T12:11:16;4.33;;;4.03;;
317;SDS011;146;53.448;10.228;2023-05-07T12:13:48;4.77;;;4.47;;
317;SDS011;146;53.448;10.228;2023-05-07T12:16:15;4.60;;;4.30;;
317;SDS011;146;53.448;10.228;2023-05-07T12:18:48;4.43;;;4.03;;
317;SDS011;146;53.448;10.228;2023-05-07T12:21:17;4.23;;;3.97;;
317;SDS011;146;53.448;10.228;2023-05-07T12:23:44;3.97;;;3.70;;
317;SDS011;146;53.448;10.228;2023-05-07T12:26:14;4.13;;;3.73;;
317;SDS011;146;53.448;10.228;2023-05-07T12:28:41;4.00;;;3.70;;
317;SDS011;146;53.448;10.228;2023-05-07T12:31:08;4.23;;;3.93;;
317;SDS011;146;53.448;10.228;2023-05-07T12:33:35;4.43;;;4.20;;
317;SDS011;146;53.448;10.228;2023-05-07T12:36:05;4.70;;;4.33;;
317;SDS011;146;53.448;10.228;2023-05-07T12:38:37;4.50;;;4.20;;
317;SDS011;146;53.448;10.228;2023-05-07T12:41:06;4.30;;;4.00;;
317;SDS011;146;53.448;10.228;2023-05-07T12:43:33;3.90;;;3.70;;
317;SDS011;146;53.448;10.228;2023-05-07T12:46:01;3.90;;;3.70;;
317;SDS011;146;53.448;10.228;2023-05-07T12:48:30;4.53;;;4.23;;
317;SDS011;146;53.448;10.228;2023-05-07T12:51:00;4.13;;;3.83;;
317;SDS011;146;53.448;10.228;2023-05-07T12:53:29;6.63;;;4.20;;
317;SDS011;146;53.448;10.228;2023-05-07T12:55:57;5.07;;;4.67;;
317;SDS011;146;53.448;10.228;2023-05-07T12:58:26;4.03;;;3.73;;
317;SDS011;146;53.448;10.228;2023-05-07T13:00:55;5.90;;;3.47;;
317;SDS011;146;53.448;10.228;2023-05-07T13:03:26;4.10;;;3.90;;
317;SDS011;146;53.448;10.228;2023-05-07T13:05:55;3.60;;;3.40;;
317;SDS011;146;53.448;10.228;2023-05-07T13:08:23;4.63;;;4.33;;
317;SDS011;146;53.448;10.228;2023-05-07T13:11:06;3.57;;;3.37;;
317;SDS011;146;53.448;10.228;2023-05-07T13:13:34;4.27;;;4.07;;
317;SDS011;146;53.448;10.228;2023-05-07T13:16:03;3.97;;;3.67;;
317;SDS011;146;53.448;10.228;2023-05-07T13:18:31;3.13;;;2.93;;
317;SDS011;146;53.448;10.228;2023-05-07T13:20:59;3.33;;;3.13;;
317;SDS011;146;53.448;10.228;2023-05-07T13:23:29;3.50;;;3.30;;
317;SDS011;146;53.448;10.228;2023-05-07T13:25:56;3.27;;;2.97;;
317;SDS011;146;53.448;10.228;2023-05-07T13:28:27;3.27;;;2.97;;
317;SDS011;146;53.448;10.228;2023-05-07T13:30:54;3.43;;;3.23;;
317;SDS011;146;53.448;10.228;2023-05-07T13:33:20;3.07;;;2.87;;
317;SDS011;146;53.448;10.228;2023-05-07T13:35:47;3.17;;;2.97;;
317;SDS011;146;53.448;10.228;2023-05-07T13:38:17;2.63;;;2.50;;
317;SDS011;146;53.448;10.228;2023-05-07T13:40:44;3.83;;;3.00;;
317;SDS011;146;53.448;10.228;2023-05-07T13:43:14;3.30;;;3.10;;
317;SDS011;146;53.448;10.228;2023-05-07T13:45:44;3.37;;;3.17;;
317;SDS011;146;53.448;10.228;2023-05-07T13:48:10;3.53;;;3.33;;
317;SDS011;146;53.448;10.228;2023-05-07T13:50:40;3.40;;;3.20;;
317;SDS011;146;53.448;10.228;2023-05-07T13:53:07;3.50;;;3.30;;
317;SDS011;146;53.448;10.228;2023-05-07T13:55:34;4.03;;;3.83;;
317;SDS011;146;53.448;10.228;2023-05-07T13:58:04;3.67;;;3.43;;
317;SDS011;146;53.448;10.228;2023-05-07T14:00:31;3.20;;;3.00;;
317;SDS011;146;53.448;10.228;2023-05-07T14:02:59;3.37;;;3.17;;
317;SDS011;146;53.448;10.228;2023-05-07T14:05:26;3.00;;;2.80;;
317;SDS011;146;53.448;10.228;2023-05-07T14:07:53;3.17;;;2.97;;
317;SDS011;146;53.448;10.228;2023-05-07T14:10:21;3.00;;;2.80;;
317;SDS011;146;53.448;10.228;2023-05-07T14:12:53;2.80;;;2.70;;
317;SDS011;146;53.448;10.228;2023-05-07T14:15:23;3.37;;;2.80;;
317;SDS011;146;53.448;10.228;2023-05-07T14:17:50;3.43;;;3.23;;
317;SDS011;146;53.448;10.228;2023-05-07T14:20:18;2.97;;;2.77;;
317;SDS011;146;53.448;10.228;2023-05-07T14:22:45;3.07;;;2.87;;
317;SDS011;146;53.448;10.228;2023-05-07T14:25:11;3.27;;;3.07;;
317;SDS011;146;53.448;10.228;2023-05-07T14:27:43;2.93;;;2.73;;
317;SDS011;146;53.448;10.228;2023-05-07T14:30:12;2.90;;;2.70;;
317;SDS011;146;53.448;10.228;2023-05-07T14:32:41;3.10;;;2.90;;
317;SDS011;146;53.448;10.228;2023-05-07T14:35:08;2.80;;;2.60;;
317;SDS011;146;53.448;10.228;2023-05-07T14:37:36;5.00;;;3.17;;
317;SDS011;146;53.448;10.228;2023-05-07T14:40:03;3.20;;;3.00;;
317;SDS011;146;53.448;10.228;2023-05-07T14:42:31;3.30;;;3.00;;
317;SDS011;146;53.448;10.228;2023-05-07T14:45:01;3.10;;;2.90;;
317;SDS011;146;53.448;10.228;2023-05-07T14:47:28;3.60;;;3.40;;
317;SDS011;146;53.448;10.228;2023-05-07T14:49:57;3.07;;;2.87;;
317;SDS011;146;53.448;10.228;2023-05-07T14:52:25;2.80;;;2.60;;
317;SDS011;146;53.448;10.228;2023-05-07T14:54:54;3.00;;;2.80;;
317;SDS011;146;53.448;10.228;2023-05-07T14:57:20;3.23;;;3.03;;
317;SDS011;146;53.448;10.228;2023-05-07T14:59:53;2.90;;;2.80;;
317;SDS011;146;53.448;10.228;2023-05-07T15:02:20;3.83;;;3.53;;
317;SDS011;146;53.448;10.228;2023-05-07T15:04:47;2.63;;;2.53;;
317;SDS011;146;53.448;10.228;2023-05-07T15:07:16;2.83;;;2.73;;
317;SDS011;146;53.448;10.228;2023-05-07T15:09:43;3.10;;;2.90;;
317;SDS011;146;53.448;10.228;2023-05-07T15:12:18;3.40;;;3.20;;
317;SDS011;146;53.448;10.228;2023-05-07T15:14:44;3.20;;;2.90;;
317;SDS011;146;53.448;10.228;2023-05-07T15:17:18;3.33;;;3.13;;
317;SDS011;146;53.448;10.228;2023-05-07T15:19:44;3.33;;;3.13;;
317;SDS011;146;53.448;10.228;2023-05-07T15:22:11;2.97;;;2.87;;
317;SDS011;146;53.448;10.228;2023-05-07T15:24:38;3.27;;;3.07;;
317;SDS011;146;53.448;10.228;2023-05-07T15:27:09;2.97;;;2.77;;
317;SDS011;146;53.448;10.228;2023-05-07T15:29:38;3.27;;;3.07;;
317;SDS011;146;53.448;10.228;2023-05-07T15:32:05;2.53;;;2.33;;
317;SDS011;146;53.448;10.228;2023-05-07T15:34:31;3.03;;;2.80;;
317;SDS011;146;53.448;10.228;2023-05-07T15:36:58;2.90;;;2.60;;
317;SDS011;146;53.448;10.228;2023-05-07T15:39:25;3.80;;;3.60;;
317;SDS011;146;53.448;10.228;2023-05-07T15:41:52;3.27;;;3.07;;
317;SDS011;146;53.448;10.228;2023-05-07T15:44:18;3.40;;;3.10;;
317;SDS011;146;53.448;10.228;2023-05-07T15:46:49;3.33;;;3.10;;
317;SDS011;146;53.448;10.228;2023-05-07T15:49:16;3.53;;;3.33;;
317;SDS011;146;53.448;10.228;2023-05-07T15:51:44;2.60;;;2.40;;